createdAt,value
2018-01-19T00:01:26.858Z,86.20
2018-01-19T00:03:54.421Z,86.50
2018-01-19T00:06:21.997Z,86.20
2018-01-19T00:08:49.553Z,86.80
2018-01-19T00:11:17.229Z,86.70
2018-01-19T00:13:44.778Z,87.10
2018-01-19T00:16:12.328Z,87.10
2018-01-19T00:18:40.642Z,86.40
2018-01-19T00:21:08.177Z,86.40
2018-01-19T00:23:35.813Z,86.90
2018-01-19T00:26:04.143Z,86.80
2018-01-19T00:28:33.393Z,86.80
2018-01-19T00:31:01.717Z,87.00
2018-01-19T00:33:29.303Z,87.00
2018-01-19T00:35:56.932Z,87.10
2018-01-19T00:38:24.509Z,87.40
2018-01-19T00:40:52.053Z,87.40
2018-01-19T00:43:19.604Z,87.30
2018-01-19T00:45:47.161Z,87.10
2018-01-19T00:48:14.840Z,87.10
2018-01-19T00:50:42.609Z,87.20
2018-01-19T00:53:10.149Z,87.70
2018-01-19T00:55:37.772Z,87.00
2018-01-19T00:58:05.357Z,86.90
2018-01-19T01:00:33.766Z,87.00
2018-01-19T01:03:01.306Z,87.00
2018-01-19T01:05:29.624Z,86.70
2018-01-19T01:07:57.173Z,86.80
2018-01-19T01:10:24.838Z,86.80
2018-01-19T01:12:52.389Z,86.40
2018-01-19T01:15:19.940Z,86.50
2018-01-19T01:17:47.509Z,87.00
2018-01-19T01:20:15.108Z,87.40
2018-01-19T01:22:42.659Z,87.50
2018-01-19T01:25:10.401Z,87.50
2018-01-19T01:27:37.978Z,87.40
2018-01-19T01:30:05.509Z,87.00
2018-01-19T01:32:33.093Z,86.80
2018-01-19T01:35:00.645Z,86.60
2018-01-19T01:37:28.191Z,87.20
2018-01-19T01:39:56.494Z,87.00
2018-01-19T01:42:24.087Z,87.00
2018-01-19T01:44:51.624Z,86.80
2018-01-19T01:47:19.174Z,86.50
2018-01-19T01:49:46.728Z,86.80
2018-01-19T01:52:14.302Z,86.70
2018-01-19T01:54:41.861Z,86.70
2018-01-19T01:57:09.522Z,87.00
2018-01-19T01:59:37.073Z,87.00
2018-01-19T02:02:04.698Z,87.30
2018-01-19T02:04:32.373Z,87.20
2018-01-19T02:07:00.701Z,87.20
2018-01-19T02:09:28.240Z,87.20
2018-01-19T02:11:55.853Z,87.20
2018-01-19T02:14:23.484Z,87.00
2018-01-19T02:16:51.061Z,86.90
2018-01-19T02:19:18.649Z,86.70
2018-01-19T02:21:46.961Z,87.00
2018-01-19T02:24:14.549Z,87.00
2018-01-19T02:26:42.082Z,86.90
2018-01-19T02:29:09.657Z,86.70
2018-01-19T02:31:37.293Z,86.70
2018-01-19T02:34:05.613Z,87.00
2018-01-19T02:36:33.184Z,86.90
2018-01-19T02:39:00.727Z,86.70
2018-01-19T02:41:28.301Z,86.50
2018-01-19T02:43:55.854Z,86.70
2018-01-19T02:46:23.425Z,86.90
2018-01-19T02:48:51.019Z,86.80
2018-01-19T02:51:18.597Z,87.00
2018-01-19T02:53:46.923Z,86.90
2018-01-19T02:56:14.481Z,86.90
2018-01-19T02:58:42.122Z,86.90
2018-01-19T03:01:09.698Z,87.20
2018-01-19T03:03:37.261Z,87.00
2018-01-19T03:06:04.837Z,87.10
2018-01-19T03:08:32.427Z,86.90
2018-01-19T03:11:00.085Z,87.00
2018-01-19T03:13:27.658Z,86.50
2018-01-19T03:15:55.215Z,86.60
2018-01-19T03:18:22.795Z,86.90
2018-01-19T03:20:51.109Z,86.70
2018-01-19T03:23:18.758Z,86.70
2018-01-19T03:25:46.288Z,86.70
2018-01-19T03:28:14.622Z,86.40
2018-01-19T03:30:42.174Z,86.50
2018-01-19T03:33:09.740Z,86.20
2018-01-19T03:35:38.232Z,85.40
2018-01-19T03:38:05.877Z,85.40
2018-01-19T03:40:33.421Z,85.20
2018-01-19T03:43:00.974Z,84.30
2018-01-19T03:45:29.284Z,83.70
2018-01-19T03:47:56.833Z,83.70
2018-01-19T03:50:24.402Z,84.00
2018-01-19T03:52:51.948Z,84.50
2018-01-19T03:55:19.490Z,84.60
2018-01-19T03:57:47.800Z,85.30
2018-01-19T04:00:15.355Z,85.30
2018-01-19T04:02:42.925Z,85.30
2018-01-19T04:05:10.467Z,85.60
2018-01-19T04:07:38.005Z,85.30
2018-01-19T04:10:05.560Z,85.40
2018-01-19T04:12:33.129Z,85.80
2018-01-19T04:15:00.666Z,86.40
2018-01-19T04:17:28.203Z,85.80
2018-01-19T04:19:55.756Z,85.80
2018-01-19T04:22:23.298Z,86.10
2018-01-19T04:24:51.527Z,86.10
2018-01-19T04:27:19.070Z,86.40
2018-01-19T04:29:46.610Z,86.50
2018-01-19T04:32:14.175Z,86.30
2018-01-19T04:34:41.711Z,86.30
2018-01-19T04:37:09.304Z,86.30
2018-01-19T04:39:36.846Z,86.20
2018-01-19T04:42:04.394Z,86.60
2018-01-19T04:44:31.941Z,86.50
2018-01-19T04:47:00.265Z,87.30
2018-01-19T04:49:27.965Z,87.20
2018-01-19T04:51:55.529Z,87.40
2018-01-19T04:54:23.111Z,87.50
2018-01-19T04:56:51.421Z,86.80
2018-01-19T04:59:18.982Z,86.70
2018-01-19T05:01:46.533Z,86.60
2018-01-19T05:04:14.077Z,86.60
2018-01-19T05:06:42.404Z,86.80
2018-01-19T05:09:09.962Z,86.70
2018-01-19T05:11:37.516Z,87.80
2018-01-19T05:14:05.069Z,87.40
2018-01-19T05:16:32.718Z,87.40
2018-01-19T05:19:00.306Z,87.40
2018-01-19T05:21:27.918Z,87.70
2018-01-19T05:23:55.666Z,87.80
2018-01-19T05:26:23.229Z,88.70
2018-01-19T05:28:50.879Z,88.00
2018-01-19T05:31:18.452Z,87.90
2018-01-19T05:33:46.000Z,88.00
2018-01-19T05:36:13.584Z,87.50
2018-01-19T05:38:41.137Z,87.40
2018-01-19T05:41:09.451Z,87.20
2018-01-19T05:43:37.001Z,87.20
2018-01-19T05:46:05.317Z,86.50
2018-01-19T05:48:32.888Z,86.50
2018-01-19T05:51:00.457Z,86.30
2018-01-19T05:53:28.017Z,86.40
2018-01-19T05:55:55.591Z,86.30
2018-01-19T05:58:23.141Z,86.10
2018-01-19T06:00:50.703Z,86.00
2018-01-19T06:03:18.251Z,85.50
2018-01-19T06:05:45.810Z,86.00
2018-01-19T06:08:13.362Z,85.90
2018-01-19T06:10:40.938Z,86.00
2018-01-19T06:13:08.500Z,86.00
2018-01-19T06:15:36.081Z,85.60
2018-01-19T06:18:03.630Z,85.50
2018-01-19T06:20:31.365Z,84.70
2018-01-19T06:22:58.930Z,84.70
2018-01-19T06:25:26.501Z,84.70
2018-01-19T06:27:54.377Z,84.80
2018-01-19T06:30:21.963Z,84.70
2018-01-19T06:32:49.540Z,85.00
2018-01-19T06:35:17.074Z,85.10
2018-01-19T06:37:44.654Z,84.80
2018-01-19T06:40:12.197Z,85.10
2018-01-19T06:42:39.781Z,85.20
2018-01-19T06:45:07.313Z,84.70
2018-01-19T06:47:34.890Z,86.20
2018-01-19T06:50:03.317Z,85.30
2018-01-19T06:52:30.887Z,85.30
2018-01-19T06:54:58.473Z,84.80
2018-01-19T06:57:26.156Z,84.80
2018-01-19T06:59:53.768Z,85.00
2018-01-19T07:02:21.340Z,85.10
2018-01-19T07:04:48.889Z,85.00
2018-01-19T07:07:16.495Z,84.50
2018-01-19T07:09:44.038Z,84.70
2018-01-19T07:12:11.596Z,84.60
2018-01-19T07:14:39.146Z,84.80
2018-01-19T07:17:07.582Z,84.70
2018-01-19T07:19:35.366Z,84.80
2018-01-19T07:22:03.676Z,85.40
2018-01-19T07:24:31.220Z,85.40
2018-01-19T07:26:58.785Z,84.90
2018-01-19T07:29:26.332Z,85.40
2018-01-19T07:31:53.889Z,85.50
2018-01-19T07:34:22.217Z,85.60
2018-01-19T07:36:49.779Z,85.60
2018-01-19T07:39:17.332Z,85.50
2018-01-19T07:41:44.896Z,85.70
2018-01-19T07:44:12.465Z,85.10
2018-01-19T07:46:40.053Z,85.10
2018-01-19T07:49:07.609Z,85.10
2018-01-19T07:51:35.178Z,85.00
2018-01-19T07:54:02.766Z,85.30
2018-01-19T07:56:30.390Z,85.40
2018-01-19T07:58:57.949Z,85.30
2018-01-19T08:01:26.318Z,85.10
2018-01-19T08:03:53.871Z,85.10
2018-01-19T08:06:21.467Z,85.00
2018-01-19T08:08:49.812Z,85.10
2018-01-19T08:11:17.396Z,85.00
2018-01-19T08:13:44.961Z,85.00
2018-01-19T08:16:13.319Z,84.80
2018-01-19T08:18:40.880Z,84.80
2018-01-19T08:21:08.434Z,85.40
2018-01-19T08:23:36.005Z,84.80
2018-01-19T08:26:03.598Z,84.40
2018-01-19T08:28:31.148Z,84.80
2018-01-19T08:30:58.745Z,84.50
2018-01-19T08:33:26.322Z,83.80
2018-01-19T08:35:53.919Z,83.70
2018-01-19T08:38:21.489Z,83.20
2018-01-19T08:40:49.058Z,83.50
2018-01-19T08:43:16.791Z,83.50
2018-01-19T08:45:44.345Z,82.90
2018-01-19T08:48:11.898Z,83.20
2018-01-19T08:50:39.456Z,82.80
2018-01-19T08:53:07.046Z,82.50
2018-01-19T08:55:34.629Z,83.20
2018-01-19T08:58:02.275Z,82.70
2018-01-19T09:00:29.865Z,82.40
2018-01-19T09:02:58.434Z,82.00
2018-01-19T09:05:26.059Z,82.00
2018-01-19T09:07:53.597Z,82.80
2018-01-19T09:10:21.177Z,81.70
2018-01-19T09:12:48.810Z,80.80
2018-01-19T09:15:17.118Z,79.10
2018-01-19T09:17:44.679Z,79.10
2018-01-19T09:20:12.261Z,78.00
2018-01-19T09:22:39.958Z,77.60
2018-01-19T09:25:07.518Z,78.50
2018-01-19T09:27:35.070Z,78.10
2018-01-19T09:30:03.411Z,75.60
2018-01-19T09:32:30.958Z,75.70
2018-01-19T09:34:58.537Z,75.10
2018-01-19T09:37:26.112Z,76.40
2018-01-19T09:39:53.694Z,77.40
2018-01-19T09:42:21.250Z,77.60
2018-01-19T09:44:49.199Z,78.40
2018-01-19T09:47:16.566Z,78.70
2018-01-19T09:49:44.116Z,79.40
2018-01-19T09:52:11.679Z,78.20
2018-01-19T09:54:39.266Z,78.50
2018-01-19T09:57:06.828Z,78.80
2018-01-19T09:59:34.401Z,77.70
2018-01-19T10:02:01.997Z,78.20
2018-01-19T10:04:29.578Z,77.70
2018-01-19T10:06:57.204Z,78.50
2018-01-19T10:09:24.726Z,77.80
2018-01-19T10:11:52.279Z,76.30
2018-01-19T10:14:19.827Z,75.90
2018-01-19T10:16:47.486Z,76.70
2018-01-19T10:19:15.052Z,75.00
2018-01-19T10:21:42.605Z,73.80
2018-01-19T10:24:10.352Z,74.70
2018-01-19T10:26:37.919Z,72.80
2018-01-19T10:29:05.478Z,72.30
2018-01-19T10:31:33.050Z,73.40
2018-01-19T10:34:00.620Z,72.00
2018-01-19T10:36:28.185Z,72.30
2018-01-19T10:38:55.755Z,71.70
2018-01-19T10:41:23.336Z,72.10
2018-01-19T10:43:50.889Z,71.20
2018-01-19T10:46:18.445Z,71.00
2018-01-19T10:48:46.032Z,69.20
2018-01-19T10:51:13.578Z,69.70
2018-01-19T10:53:41.722Z,70.00
2018-01-19T10:56:09.293Z,70.90
2018-01-19T10:58:36.842Z,70.00
2018-01-19T11:01:04.405Z,70.10
2018-01-19T11:03:32.001Z,70.80
2018-01-19T11:05:59.560Z,72.20
2018-01-19T11:10:56.426Z,72.80
2018-01-19T11:13:23.989Z,73.00
2018-01-19T11:15:51.537Z,72.30
2018-01-19T11:18:19.098Z,72.80
2018-01-19T11:20:46.660Z,71.60
2018-01-19T11:23:14.242Z,70.80
2018-01-19T11:25:41.813Z,70.30
2018-01-19T11:28:09.390Z,70.20
2018-01-19T11:30:37.735Z,69.70
2018-01-19T11:33:05.296Z,69.70
2018-01-19T11:35:32.833Z,69.60
2018-01-19T11:38:00.761Z,69.80
2018-01-19T11:40:29.094Z,69.30
2018-01-19T11:42:56.687Z,69.30
2018-01-19T11:45:24.254Z,69.50
2018-01-19T11:47:51.797Z,70.10
2018-01-19T11:50:19.408Z,69.70
2018-01-19T11:52:46.967Z,68.90
2018-01-19T11:55:15.009Z,69.10
2018-01-19T11:57:42.569Z,69.50
2018-01-19T12:00:10.221Z,68.70
2018-01-19T12:02:37.797Z,67.70
2018-01-19T12:05:05.379Z,68.40
2018-01-19T12:07:33.689Z,66.80
2018-01-19T12:10:01.246Z,66.80
2018-01-19T12:12:28.789Z,66.20
2018-01-19T12:14:56.390Z,65.70
2018-01-19T12:17:24.101Z,65.80
2018-01-19T12:19:52.440Z,67.00
2018-01-19T12:22:20.018Z,66.90
2018-01-19T12:24:47.572Z,67.40
2018-01-19T12:27:15.165Z,67.20
2018-01-19T12:29:43.486Z,64.40
2018-01-19T12:32:11.807Z,64.30
2018-01-19T12:34:40.150Z,65.40
2018-01-19T12:37:07.709Z,65.30
2018-01-19T12:39:35.279Z,65.50
2018-01-19T12:42:02.832Z,66.00
2018-01-19T12:44:30.390Z,65.10
2018-01-19T12:46:57.969Z,65.00
2018-01-19T12:49:25.542Z,66.30
2018-01-19T12:51:53.109Z,65.80
2018-01-19T12:54:20.672Z,65.10
2018-01-19T12:56:48.200Z,64.60
2018-01-19T12:59:15.791Z,65.20
2018-01-19T13:01:43.333Z,64.90
2018-01-19T13:04:10.919Z,63.60
2018-01-19T13:06:38.548Z,63.50
2018-01-19T13:09:06.126Z,62.30
2018-01-19T13:11:33.685Z,62.90
2018-01-19T13:14:01.362Z,61.60
2018-01-19T13:16:28.917Z,61.20
2018-01-19T13:18:56.478Z,62.70
2018-01-19T13:21:24.048Z,63.70
2018-01-19T13:23:51.636Z,64.90
2018-01-19T13:26:19.966Z,65.70
2018-01-19T13:28:47.553Z,65.70
2018-01-19T13:31:15.098Z,66.40
2018-01-19T13:33:42.662Z,65.10
2018-01-19T13:36:10.285Z,64.40
2018-01-19T13:38:37.849Z,63.00
2018-01-19T13:41:05.398Z,62.00
2018-01-19T13:43:33.718Z,63.00
2018-01-19T13:46:01.352Z,63.00
2018-01-19T13:48:28.989Z,63.30
2018-01-19T13:50:56.544Z,64.40
2018-01-19T13:53:24.121Z,65.10
2018-01-19T13:55:52.461Z,65.60
2018-01-19T13:58:20.042Z,65.50
2018-01-19T14:00:47.590Z,65.60
2018-01-19T14:03:15.159Z,66.20
2018-01-19T14:05:42.736Z,66.40
2018-01-19T14:08:10.314Z,66.40
2018-01-19T14:10:38.631Z,67.20
2018-01-19T14:13:06.227Z,67.20
2018-01-19T14:15:33.803Z,66.70
2018-01-19T14:18:01.360Z,66.40
2018-01-19T14:20:28.920Z,64.80
2018-01-19T14:22:56.509Z,63.70
2018-01-19T14:25:24.074Z,63.40
2018-01-19T14:27:51.617Z,63.80
2018-01-19T14:30:19.161Z,64.20
2018-01-19T14:32:46.713Z,64.80
2018-01-19T14:35:14.269Z,65.10
2018-01-19T14:37:41.844Z,65.10
2018-01-19T14:40:09.553Z,65.60
2018-01-19T14:42:37.891Z,64.70
2018-01-19T14:45:05.534Z,64.70
2018-01-19T14:47:33.432Z,65.30
2018-01-19T14:50:01.090Z,65.10
2018-01-19T14:52:28.790Z,66.30
2018-01-19T14:54:56.336Z,66.80
2018-01-19T14:57:23.894Z,66.70
2018-01-19T14:59:51.503Z,66.70
2018-01-19T15:02:19.069Z,67.20
2018-01-19T15:04:46.697Z,67.20
2018-01-19T15:07:14.272Z,67.10
2018-01-19T15:09:42.586Z,66.20
2018-01-19T15:12:10.153Z,66.10
2018-01-19T15:14:37.784Z,65.50
2018-01-19T15:17:06.745Z,66.40
2018-01-19T15:19:34.371Z,66.40
2018-01-19T15:22:01.905Z,65.40
2018-01-19T15:24:30.226Z,65.20
2018-01-19T15:26:57.801Z,65.10
2018-01-19T15:29:25.356Z,65.60
2018-01-19T15:31:52.998Z,64.90
2018-01-19T15:34:20.580Z,65.30
2018-01-19T15:36:48.150Z,64.50
2018-01-19T15:39:15.730Z,63.10
2018-01-19T15:41:44.065Z,63.10
2018-01-19T15:44:11.691Z,63.10
2018-01-19T15:46:40.015Z,63.40
2018-01-19T15:49:07.658Z,63.40
2018-01-19T15:51:35.307Z,64.30
2018-01-19T15:54:02.954Z,64.40
2018-01-19T15:56:30.646Z,65.40
2018-01-19T15:58:58.286Z,66.10
2018-01-19T16:01:26.672Z,67.20
2018-01-19T16:03:54.327Z,67.20
2018-01-19T16:06:21.925Z,67.40
2018-01-19T16:08:50.094Z,68.20
2018-01-19T16:11:17.790Z,68.40
2018-01-19T16:13:45.423Z,69.10
2018-01-19T16:16:13.112Z,69.30
2018-01-19T16:18:40.734Z,69.80
2018-01-19T16:21:09.090Z,69.10
2018-01-19T16:23:36.675Z,69.10
2018-01-19T16:26:05.087Z,68.70
2018-01-19T16:28:33.291Z,68.70
2018-01-19T16:31:00.866Z,68.10
2018-01-19T16:33:28.533Z,67.70
2018-01-19T16:35:56.106Z,67.20
2018-01-19T16:38:24.594Z,67.00
2018-01-19T16:40:53.010Z,68.30
2018-01-19T16:43:20.582Z,68.30
2018-01-19T16:45:48.134Z,69.00
2018-01-19T16:48:15.749Z,69.30
2018-01-19T16:50:43.328Z,69.20
2018-01-19T16:53:11.678Z,68.80
2018-01-19T16:55:39.289Z,68.80
2018-01-19T16:58:07.157Z,68.30
2018-01-19T17:00:34.746Z,68.20
2018-01-19T17:03:02.302Z,68.10
2018-01-19T17:05:29.869Z,68.00
2018-01-19T17:07:57.539Z,68.30
2018-01-19T17:10:25.312Z,68.50
2018-01-19T17:12:52.858Z,68.90
2018-01-19T17:15:20.430Z,69.10
2018-01-19T17:17:48.003Z,70.00
2018-01-19T17:20:15.580Z,70.20
2018-01-19T17:22:43.173Z,70.80
2018-01-19T17:25:10.761Z,71.20
2018-01-19T17:27:38.331Z,71.80
2018-01-19T17:30:05.905Z,72.40
2018-01-19T17:32:33.578Z,72.90
2018-01-19T17:35:01.114Z,73.10
2018-01-19T17:37:28.670Z,73.30
2018-01-19T17:39:56.281Z,73.20
2018-01-19T17:42:24.629Z,73.60
2018-01-19T17:44:52.184Z,73.60
2018-01-19T17:47:19.741Z,74.10
2018-01-19T17:49:47.308Z,74.20
2018-01-19T17:52:14.893Z,74.50
2018-01-19T17:54:42.461Z,74.60
2018-01-19T17:57:10.046Z,74.30
2018-01-19T17:59:38.509Z,74.00
2018-01-19T18:02:06.053Z,74.00
2018-01-19T18:04:33.618Z,73.80
2018-01-19T18:07:01.221Z,73.50
2018-01-19T18:09:29.594Z,72.90
2018-01-19T18:11:58.018Z,72.70
2018-01-19T18:14:25.581Z,72.70
2018-01-19T18:16:53.122Z,72.80
2018-01-19T18:19:20.696Z,73.40
2018-01-19T18:21:48.249Z,73.50
2018-01-19T18:24:15.862Z,73.50
2018-01-19T18:26:43.411Z,73.80
2018-01-19T18:29:10.981Z,74.10
2018-01-19T18:31:38.809Z,74.10
2018-01-19T18:34:06.351Z,74.20
2018-01-19T18:36:33.904Z,74.50
2018-01-19T18:39:01.458Z,74.30
2018-01-19T18:41:29.937Z,74.50
2018-01-19T18:43:58.255Z,74.80
2018-01-19T18:46:25.815Z,74.80
2018-01-19T18:48:53.393Z,74.40
2018-01-19T18:51:20.955Z,74.10
2018-01-19T18:53:48.521Z,73.80
2018-01-19T18:56:16.116Z,73.80
2018-01-19T18:58:43.681Z,74.00
2018-01-19T19:01:12.094Z,75.00
2018-01-19T19:03:39.699Z,74.30
2018-01-19T19:06:07.526Z,74.30
2018-01-19T19:08:35.079Z,74.10
2018-01-19T19:11:02.659Z,74.20
2018-01-19T19:13:30.275Z,74.10
2018-01-19T19:15:57.952Z,74.10
2018-01-19T19:18:25.638Z,74.10
2018-01-19T19:20:53.304Z,74.30
2018-01-19T19:23:21.388Z,74.70
2018-01-19T19:25:48.964Z,75.00
2018-01-19T19:28:16.534Z,75.00
2018-01-19T19:30:44.226Z,74.90
2018-01-19T19:33:12.621Z,76.30
2018-01-19T19:35:40.952Z,75.40
2018-01-19T19:38:08.537Z,75.40
2018-01-19T19:40:36.236Z,75.30
2018-01-19T19:43:03.844Z,74.90
2018-01-19T19:45:31.491Z,75.30
2018-01-19T19:47:59.083Z,76.30
2018-01-19T19:50:26.642Z,75.60
2018-01-19T19:52:54.222Z,75.60
2018-01-19T19:55:22.578Z,75.50
2018-01-19T19:57:50.173Z,75.50
2018-01-19T20:00:18.821Z,74.90
2018-01-19T20:02:46.658Z,74.90
2018-01-19T20:05:14.268Z,75.20
2018-01-19T20:07:42.627Z,76.00
2018-01-19T20:10:10.222Z,76.10
2018-01-19T20:12:37.796Z,76.50
2018-01-19T20:15:06.153Z,76.90
2018-01-19T20:17:33.747Z,76.90
2018-01-19T20:20:01.471Z,77.50
2018-01-19T20:22:29.052Z,77.80
2018-01-19T20:24:57.408Z,78.30
2018-01-19T20:27:25.349Z,78.20
2018-01-19T20:29:53.060Z,78.50
2018-01-19T20:32:20.668Z,78.50
2018-01-19T20:34:48.247Z,78.70
2018-01-19T20:37:15.949Z,79.10
2018-01-19T20:39:43.740Z,79.40
2018-01-19T20:42:12.116Z,79.40
2018-01-19T20:44:40.829Z,79.10
2018-01-19T20:47:08.551Z,79.10
2018-01-19T20:49:36.373Z,78.90
2018-01-19T20:52:04.085Z,79.10
2018-01-19T20:54:32.461Z,79.00
2018-01-19T20:57:00.062Z,79.00
2018-01-19T20:59:27.658Z,79.10
2018-01-19T21:01:55.229Z,79.10
2018-01-19T21:04:22.791Z,79.40
2018-01-19T21:06:50.352Z,79.00
2018-01-19T21:09:17.909Z,78.90
2018-01-19T21:11:45.586Z,79.50
2018-01-19T21:14:13.132Z,78.50
2018-01-19T21:16:40.706Z,78.60
2018-01-19T21:19:08.304Z,78.70
2018-01-19T21:21:35.913Z,79.60
2018-01-19T21:24:03.478Z,79.00
2018-01-19T21:26:31.042Z,79.50
2018-01-19T21:28:58.616Z,79.70
2018-01-19T21:31:26.947Z,80.40
2018-01-19T21:33:54.576Z,80.30
2018-01-19T21:36:22.911Z,80.70
2018-01-19T21:38:50.477Z,80.70
2018-01-19T21:41:18.038Z,80.80
2018-01-19T21:43:45.661Z,81.10
2018-01-19T21:46:13.212Z,81.60
2018-01-19T21:48:40.783Z,81.90
2018-01-19T21:51:08.338Z,81.50
2018-01-19T21:53:36.117Z,81.50
2018-01-19T21:56:03.666Z,81.70
2018-01-19T21:58:31.246Z,81.80
2018-01-19T22:00:58.832Z,81.70
2018-01-19T22:03:26.432Z,81.60
2018-01-19T22:05:54.790Z,81.40
2018-01-19T22:08:22.359Z,81.40
2018-01-19T22:10:49.949Z,81.90
2018-01-19T22:13:17.523Z,81.70
2018-01-19T22:15:45.105Z,81.40
2018-01-19T22:18:12.660Z,81.20
2018-01-19T22:20:40.283Z,80.60
2018-01-19T22:23:08.630Z,80.50
2018-01-19T22:25:36.196Z,79.80
2018-01-19T22:28:03.776Z,79.40
2018-01-19T22:30:32.107Z,78.90
2018-01-19T22:32:59.673Z,78.80
2018-01-19T22:35:27.347Z,78.90
2018-01-19T22:37:54.898Z,79.00
2018-01-19T22:40:22.465Z,79.00
2018-01-19T22:42:50.037Z,79.50
2018-01-19T22:45:17.638Z,79.50
2018-01-19T22:47:45.210Z,79.70
2018-01-19T22:50:12.789Z,79.70
2018-01-19T22:52:40.347Z,80.00
2018-01-19T22:55:07.919Z,80.50
2018-01-19T22:57:35.485Z,80.80
2018-01-19T23:00:03.053Z,81.10
2018-01-19T23:02:30.626Z,81.20
2018-01-19T23:04:58.209Z,81.20
2018-01-19T23:07:26.689Z,81.30
2018-01-19T23:09:54.245Z,81.30
2018-01-19T23:12:21.836Z,81.40
2018-01-19T23:14:49.416Z,81.50
2018-01-19T23:17:16.957Z,81.20
2018-01-19T23:19:45.272Z,81.10
2018-01-19T23:22:12.827Z,81.00
2018-01-19T23:24:40.422Z,80.60
2018-01-19T23:27:08.003Z,80.30
2018-01-19T23:29:35.581Z,79.70
2018-01-19T23:32:03.969Z,78.80
2018-01-19T23:34:32.585Z,78.70
2018-01-19T23:37:01.397Z,78.60
2018-01-19T23:39:29.056Z,78.60
2018-01-19T23:41:56.635Z,78.20
2018-01-19T23:44:24.223Z,77.50
2018-01-19T23:46:52.564Z,77.70
2018-01-19T23:49:20.260Z,77.60
2018-01-19T23:51:48.596Z,77.30
2018-01-19T23:54:16.177Z,77.20
2018-01-19T23:56:43.817Z,77.10
2018-01-19T23:59:11.397Z,77.40
